No particular awareness of the weather is required.    There are no Weather-warnings


Meteo18 Weather Cam more information Meteo18 Weather Cam


Thunder radar more information blitzortung!


Rain radar more information rain snow radar


Visit our other weather sites:

Template documentation
and downloads

And another site



Weather Underground History page Text

Daily Summary for April 18, 2017 Units:  Both    English   Metric
« Previous Day
Next Day »
Daily Weekly Monthly Yearly Custom
  High: Low: Average:
Temperature: 52.2 °F /  11.2 °C 36.9 °F /  2.7 °C 44.1 °F /  6.7 °C
Dew Point: 40.8 °F /  4.9 °C 30.4 °F /  -0.9 °C 34.9 °F /  1.6 °C
Humidity: 88 % 46 % 72 %
Wind Speed: 16 mph /  25.7 km/h - 4 mph /  6.4 km/h
Wind Gust: 21 mph /  33.8 km/h - -
Wind:- - SSE
Pressure: 30.4 in /  1029.3 hPa 30.2 in /  1023.2 hPa -
Precipitation: 0 in /  0.0 mm    
Historical Graphs
 
 
Tabular Data for April 18, 2017
Time Temperature Dew Point Pressure Wind Wind Speed Wind Gust Humidity Rainfall Rate (Hourly)
00:02 47.8 °F /  8.8 °C 40.6 °F /  4.8 °C 30.2 in /  1023.2 hPa Calm   11 mph /  17.7 km/h 76 % 0 in /  0.0 mm
00:07 47.7 °F /  8.7 °C 40.8 °F /  4.9 °C 30.2 in /  1023.2 hPa NNE 4 mph /  6.4 km/h 8 mph /  12.9 km/h 77 % 0 in /  0.0 mm
00:12 47.7 °F /  8.7 °C 40.8 °F /  4.9 °C 30.2 in /  1023.2 hPa NE 2 mph /  3.2 km/h 8 mph /  12.9 km/h 77 % 0 in /  0.0 mm
00:22 47.5 °F /  8.6 °C 40.3 °F /  4.6 °C 30.2 in /  1023.6 hPa NNW 2 mph /  3.2 km/h 8 mph /  12.9 km/h 76 % 0 in /  0.0 mm
00:27 47.1 °F /  8.4 °C 40.3 °F /  4.6 °C 30.2 in /  1023.6 hPa NE 6 mph /  9.7 km/h 9 mph /  14.5 km/h 77 % 0 in /  0.0 mm
00:32 46.9 °F /  8.3 °C 40.1 °F /  4.5 °C 30.2 in /  1023.6 hPa East 1 mph /  1.6 km/h 9 mph /  14.5 km/h 77 % 0 in /  0.0 mm
00:42 46.4 °F /  8.0 °C 39.6 °F /  4.2 °C 30.2 in /  1023.6 hPa Calm   8 mph /  12.9 km/h 77 % 0 in /  0.0 mm
00:47 45.9 °F /  7.7 °C 39.4 °F /  4.1 °C 30.2 in /  1023.6 hPa Calm   6 mph /  9.7 km/h 78 % 0 in /  0.0 mm
00:52 45.5 °F /  7.5 °C 39.4 °F /  4.1 °C 30.2 in /  1023.6 hPa Calm   6 mph /  9.7 km/h 79 % 0 in /  0.0 mm
00:57 45.1 °F /  7.3 °C 39 °F /  3.9 °C 30.2 in /  1023.6 hPa Calm   3 mph /  4.8 km/h 79 % 0 in /  0.0 mm
01:02 45 °F /  7.2 °C 39.2 °F /  4.0 °C 30.2 in /  1023.6 hPa NE 3 mph /  4.8 km/h 3 mph /  4.8 km/h 80 % 0 in /  0.0 mm
01:07 45 °F /  7.2 °C 39.2 °F /  4.0 °C 30.2 in /  1023.6 hPa NE 3 mph /  4.8 km/h 4 mph /  6.4 km/h 80 % 0 in /  0.0 mm
01:12 44.4 °F /  6.9 °C 38.7 °F /  3.7 °C 30.2 in /  1023.6 hPa NNE 2 mph /  3.2 km/h 4 mph /  6.4 km/h 80 % 0 in /  0.0 mm
01:17 43.9 °F /  6.6 °C 38.5 °F /  3.6 °C 30.2 in /  1023.6 hPa Calm   4 mph /  6.4 km/h 81 % 0 in /  0.0 mm
01:22 43.5 °F /  6.4 °C 38.5 °F /  3.6 °C 30.2 in /  1023.6 hPa Calm   4 mph /  6.4 km/h 82 % 0 in /  0.0 mm
01:27 43.5 °F /  6.4 °C 38.7 °F /  3.7 °C 30.2 in /  1023.6 hPa NNW 1 mph /  1.6 km/h 4 mph /  6.4 km/h 83 % 0 in /  0.0 mm
01:37 43.2 °F /  6.2 °C 38.3 °F /  3.5 °C 30.2 in /  1023.6 hPa Calm   3 mph /  4.8 km/h 83 % 0 in /  0.0 mm
01:42 43 °F /  6.1 °C 38.1 °F /  3.4 °C 30.2 in /  1023.6 hPa North 1 mph /  1.6 km/h 3 mph /  4.8 km/h 83 % 0 in /  0.0 mm
01:52 42.4 °F /  5.8 °C 37.9 °F /  3.3 °C 30.2 in /  1023.9 hPa Calm   3 mph /  4.8 km/h 84 % 0 in /  0.0 mm
01:57 42.4 °F /  5.8 °C 37.9 °F /  3.3 °C 30.2 in /  1023.9 hPa Calm   2 mph /  3.2 km/h 84 % 0 in /  0.0 mm
02:02 42.3 °F /  5.7 °C 37.8 °F /  3.2 °C 30.2 in /  1023.6 hPa NW 1 mph /  1.6 km/h 2 mph /  3.2 km/h 84 % 0 in /  0.0 mm
02:07 42.3 °F /  5.7 °C 38.1 °F /  3.4 °C 30.2 in /  1023.9 hPa NW 1 mph /  1.6 km/h 2 mph /  3.2 km/h 85 % 0 in /  0.0 mm
02:12 42.1 °F /  5.6 °C 37.9 °F /  3.3 °C 30.2 in /  1023.6 hPa Calm   2 mph /  3.2 km/h 85 % 0 in /  0.0 mm
02:17 42.1 °F /  5.6 °C 37.9 °F /  3.3 °C 30.2 in /  1023.9 hPa Calm   2 mph /  3.2 km/h 85 % 0 in /  0.0 mm
02:22 41.9 °F /  5.5 °C 37.8 °F /  3.2 °C 30.2 in /  1023.9 hPa NW 1 mph /  1.6 km/h 2 mph /  3.2 km/h 85 % 0 in /  0.0 mm
02:27 41.7 °F /  5.4 °C 37.6 °F /  3.1 °C 30.2 in /  1023.9 hPa Calm   2 mph /  3.2 km/h 85 % 0 in /  0.0 mm
02:32 41.7 °F /  5.4 °C 37.6 °F /  3.1 °C 30.2 in /  1023.9 hPa Calm   2 mph /  3.2 km/h 85 % 0 in /  0.0 mm
02:37 41.5 °F /  5.3 °C 37.6 °F /  3.1 °C 30.2 in /  1023.9 hPa NW 1 mph /  1.6 km/h 2 mph /  3.2 km/h 86 % 0 in /  0.0 mm
02:42 41.5 °F /  5.3 °C 37.6 °F /  3.1 °C 30.2 in /  1023.9 hPa NW 1 mph /  1.6 km/h 2 mph /  3.2 km/h 86 % 0 in /  0.0 mm
02:47 41.5 °F /  5.3 °C 37.6 °F /  3.1 °C 30.2 in /  1023.9 hPa Calm   2 mph /  3.2 km/h 86 % 0 in /  0.0 mm
02:52 41.7 °F /  5.4 °C 37.8 °F /  3.2 °C 30.2 in /  1023.6 hPa NW 1 mph /  1.6 km/h 2 mph /  3.2 km/h 86 % 0 in /  0.0 mm
02:57 41.7 °F /  5.4 °C 37.8 °F /  3.2 °C 30.2 in /  1023.9 hPa NNW 1 mph /  1.6 km/h 2 mph /  3.2 km/h 86 % 0 in /  0.0 mm
03:02 41.5 °F /  5.3 °C 37.6 °F /  3.1 °C 30.2 in /  1023.6 hPa Calm   2 mph /  3.2 km/h 86 % 0 in /  0.0 mm
03:07 41.5 °F /  5.3 °C 37.6 °F /  3.1 °C 30.2 in /  1023.6 hPa NNW 1 mph /  1.6 km/h 3 mph /  4.8 km/h 86 % 0 in /  0.0 mm
03:12 41.4 °F /  5.2 °C 37.6 °F /  3.1 °C 30.2 in /  1023.6 hPa Calm   3 mph /  4.8 km/h 86 % 0 in /  0.0 mm
03:17 41.2 °F /  5.1 °C 37.4 °F /  3.0 °C 30.2 in /  1023.6 hPa Calm   3 mph /  4.8 km/h 86 % 0 in /  0.0 mm
03:22 41.2 °F /  5.1 °C 37.4 °F /  3.0 °C 30.2 in /  1023.6 hPa Calm   2 mph /  3.2 km/h 86 % 0 in /  0.0 mm
03:27 41.2 °F /  5.1 °C 37.4 °F /  3.0 °C 30.2 in /  1023.6 hPa Calm   2 mph /  3.2 km/h 86 % 0 in /  0.0 mm
03:32 41 °F /  5.0 °C 37.2 °F /  2.9 °C 30.2 in /  1023.6 hPa WNW 1 mph /  1.6 km/h 2 mph /  3.2 km/h 86 % 0 in /  0.0 mm
03:37 40.8 °F /  4.9 °C 37 °F /  2.8 °C 30.2 in /  1023.6 hPa Calm   2 mph /  3.2 km/h 86 % 0 in /  0.0 mm
03:42 40.8 °F /  4.9 °C 37 °F /  2.8 °C 30.2 in /  1023.6 hPa Calm   2 mph /  3.2 km/h 86 % 0 in /  0.0 mm
03:47 40.8 °F /  4.9 °C 37 °F /  2.8 °C 30.2 in /  1023.6 hPa NW 1 mph /  1.6 km/h 1 mph /  1.6 km/h 86 % 0 in /  0.0 mm
03:52 40.6 °F /  4.8 °C 36.9 °F /  2.7 °C 30.2 in /  1023.6 hPa NW 1 mph /  1.6 km/h 1 mph /  1.6 km/h 86 % 0 in /  0.0 mm
03:57 40.5 °F /  4.7 °C 36.7 °F /  2.6 °C 30.2 in /  1023.6 hPa Calm   1 mph /  1.6 km/h 86 % 0 in /  0.0 mm
04:02 40.3 °F /  4.6 °C 36.7 °F /  2.6 °C 30.2 in /  1023.6 hPa NW 1 mph /  1.6 km/h 1 mph /  1.6 km/h 87 % 0 in /  0.0 mm
04:07 40.3 °F /  4.6 °C 36.7 °F /  2.6 °C 30.2 in /  1023.6 hPa Calm   2 mph /  3.2 km/h 87 % 0 in /  0.0 mm
04:12 40.1 °F /  4.5 °C 36.5 °F /  2.5 °C 30.2 in /  1023.6 hPa Calm   2 mph /  3.2 km/h 87 % 0 in /  0.0 mm
04:17 39.9 °F /  4.4 °C 36.1 °F /  2.3 °C 30.2 in /  1023.9 hPa West 2 mph /  3.2 km/h 2 mph /  3.2 km/h 86 % 0 in /  0.0 mm
04:22 39.9 °F /  4.4 °C 36.7 °F /  2.6 °C 30.2 in /  1023.6 hPa NW 1 mph /  1.6 km/h 3 mph /  4.8 km/h 88 % 0 in /  0.0 mm
04:27 40.1 °F /  4.5 °C 36.9 °F /  2.7 °C 30.2 in /  1023.9 hPa NW 2 mph /  3.2 km/h 3 mph /  4.8 km/h 88 % 0 in /  0.0 mm
04:32 40.3 °F /  4.6 °C 37 °F /  2.8 °C 30.2 in /  1023.9 hPa NW 2 mph /  3.2 km/h 3 mph /  4.8 km/h 88 % 0 in /  0.0 mm
04:37 40.5 °F /  4.7 °C 36.9 °F /  2.7 °C 30.2 in /  1023.9 hPa WNW 1 mph /  1.6 km/h 3 mph /  4.8 km/h 87 % 0 in /  0.0 mm
04:47 40.1 °F /  4.5 °C 36.5 °F /  2.5 °C 30.2 in /  1023.9 hPa NW 1 mph /  1.6 km/h 3 mph /  4.8 km/h 87 % 0 in /  0.0 mm
04:52 39.9 °F /  4.4 °C 36.7 °F /  2.6 °C 30.2 in /  1023.9 hPa NW 1 mph /  1.6 km/h 3 mph /  4.8 km/h 88 % 0 in /  0.0 mm
05:02 39.6 °F /  4.2 °C 36.3 °F /  2.4 °C 30.2 in /  1023.9 hPa NW 1 mph /  1.6 km/h 3 mph /  4.8 km/h 88 % 0 in /  0.0 mm
05:12 39.2 °F /  4.0 °C 36 °F /  2.2 °C 30.2 in /  1023.9 hPa NNW 2 mph /  3.2 km/h 2 mph /  3.2 km/h 88 % 0 in /  0.0 mm
05:17 39 °F /  3.9 °C 35.8 °F /  2.1 °C 30.3 in /  1024.3 hPa NNW 4 mph /  6.4 km/h 4 mph /  6.4 km/h 88 % 0 in /  0.0 mm
05:22 39.2 °F /  4.0 °C 36 °F /  2.2 °C 30.3 in /  1024.3 hPa North 2 mph /  3.2 km/h 8 mph /  12.9 km/h 88 % 0 in /  0.0 mm
05:27 39.2 °F /  4.0 °C 36 °F /  2.2 °C 30.3 in /  1024.3 hPa NNW 5 mph /  8.0 km/h 8 mph /  12.9 km/h 88 % 0 in /  0.0 mm
05:32 39.2 °F /  4.0 °C 36 °F /  2.2 °C 30.3 in /  1024.3 hPa NW 2 mph /  3.2 km/h 8 mph /  12.9 km/h 88 % 0 in /  0.0 mm
05:37 39.2 °F /  4.0 °C 36 °F /  2.2 °C 30.3 in /  1024.3 hPa NNE 3 mph /  4.8 km/h 8 mph /  12.9 km/h 88 % 0 in /  0.0 mm
05:42 39 °F /  3.9 °C 35.8 °F /  2.1 °C 30.3 in /  1024.3 hPa NW 1 mph /  1.6 km/h 8 mph /  12.9 km/h 88 % 0 in /  0.0 mm
05:52 38.7 °F /  3.7 °C 35.4 °F /  1.9 °C 30.3 in /  1024.3 hPa NNE 1 mph /  1.6 km/h 6 mph /  9.7 km/h 88 % 0 in /  0.0 mm
06:02 38.5 °F /  3.6 °C 34.9 °F /  1.6 °C 30.3 in /  1024.3 hPa ENE 1 mph /  1.6 km/h 5 mph /  8.0 km/h 87 % 0 in /  0.0 mm
06:07 38.3 °F /  3.5 °C 34.7 °F /  1.5 °C 30.3 in /  1024.3 hPa NE 1 mph /  1.6 km/h 6 mph /  9.7 km/h 87 % 0 in /  0.0 mm
06:12 37.9 °F /  3.3 °C 34.3 °F /  1.3 °C 30.3 in /  1024.3 hPa NNE 3 mph /  4.8 km/h 6 mph /  9.7 km/h 87 % 0 in /  0.0 mm
06:17 37.9 °F /  3.3 °C 34.3 °F /  1.3 °C 30.3 in /  1024.3 hPa NNE 1 mph /  1.6 km/h 4 mph /  6.4 km/h 87 % 0 in /  0.0 mm
06:22 37.8 °F /  3.2 °C 34 °F /  1.1 °C 30.3 in /  1024.3 hPa NNE 1 mph /  1.6 km/h 4 mph /  6.4 km/h 86 % 0 in /  0.0 mm
06:32 37.2 °F /  2.9 °C 33.4 °F /  0.8 °C 30.3 in /  1024.3 hPa Calm   4 mph /  6.4 km/h 86 % 0 in /  0.0 mm
06:37 37.2 °F /  2.9 °C 33.4 °F /  0.8 °C 30.3 in /  1024.6 hPa North 2 mph /  3.2 km/h 3 mph /  4.8 km/h 86 % 0 in /  0.0 mm
06:42 37.2 °F /  2.9 °C 33.4 °F /  0.8 °C 30.3 in /  1024.6 hPa NNW 4 mph /  6.4 km/h 4 mph /  6.4 km/h 86 % 0 in /  0.0 mm
06:47 37.2 °F /  2.9 °C 33.1 °F /  0.6 °C 30.3 in /  1024.6 hPa NNW 2 mph /  3.2 km/h 5 mph /  8.0 km/h 85 % 0 in /  0.0 mm
06:52 37.4 °F /  3.0 °C 33.1 °F /  0.6 °C 30.3 in /  1024.6 hPa NNE 1 mph /  1.6 km/h 5 mph /  8.0 km/h 84 % 0 in /  0.0 mm
06:57 37 °F /  2.8 °C 32.7 °F /  0.4 °C 30.3 in /  1024.6 hPa North 4 mph /  6.4 km/h 9 mph /  14.5 km/h 84 % 0 in /  0.0 mm
07:02 36.9 °F /  2.7 °C 32.7 °F /  0.4 °C 30.3 in /  1024.6 hPa North 1 mph /  1.6 km/h 9 mph /  14.5 km/h 85 % 0 in /  0.0 mm
07:12 36.9 °F /  2.7 °C 32.7 °F /  0.4 °C 30.3 in /  1024.9 hPa Calm   7 mph /  11.3 km/h 85 % 0 in /  0.0 mm
07:17 37 °F /  2.8 °C 32.7 °F /  0.4 °C 30.3 in /  1024.9 hPa NE 2 mph /  3.2 km/h 5 mph /  8.0 km/h 84 % 0 in /  0.0 mm
07:22 37.2 °F /  2.9 °C 32.9 °F /  0.5 °C 30.3 in /  1024.9 hPa NNE 3 mph /  4.8 km/h 5 mph /  8.0 km/h 84 % 0 in /  0.0 mm
07:32 37.6 °F /  3.1 °C 32.9 °F /  0.5 °C 30.3 in /  1024.9 hPa NE 1 mph /  1.6 km/h 4 mph /  6.4 km/h 83 % 0 in /  0.0 mm
07:42 37.6 °F /  3.1 °C 32.5 °F /  0.3 °C 30.3 in /  1024.9 hPa North 1 mph /  1.6 km/h 5 mph /  8.0 km/h 82 % 0 in /  0.0 mm
07:47 37.8 °F /  3.2 °C 32.7 °F /  0.4 °C 30.3 in /  1025.3 hPa NNE 1 mph /  1.6 km/h 5 mph /  8.0 km/h 82 % 0 in /  0.0 mm
07:52 38.1 °F /  3.4 °C 33.1 °F /  0.6 °C 30.3 in /  1025.3 hPa NNE 1 mph /  1.6 km/h 5 mph /  8.0 km/h 82 % 0 in /  0.0 mm
07:57 38.5 °F /  3.6 °C 33.4 °F /  0.8 °C 30.3 in /  1025.3 hPa Calm   3 mph /  4.8 km/h 82 % 0 in /  0.0 mm
08:02 38.7 °F /  3.7 °C 33.6 °F /  0.9 °C 30.3 in /  1025.6 hPa North 1 mph /  1.6 km/h 3 mph /  4.8 km/h 82 % 0 in /  0.0 mm
08:12 39.4 °F /  4.1 °C 34 °F /  1.1 °C 30.3 in /  1025.6 hPa North 3 mph /  4.8 km/h 8 mph /  12.9 km/h 81 % 0 in /  0.0 mm
08:17 39.6 °F /  4.2 °C 34 °F /  1.1 °C 30.3 in /  1025.6 hPa NNE 5 mph /  8.0 km/h 8 mph /  12.9 km/h 80 % 0 in /  0.0 mm
08:32 40.1 °F /  4.5 °C 34.2 °F /  1.2 °C 30.3 in /  1026.0 hPa NNE 3 mph /  4.8 km/h 9 mph /  14.5 km/h 79 % 0 in /  0.0 mm
08:37 40.5 °F /  4.7 °C 34.5 °F /  1.4 °C 30.3 in /  1026.0 hPa NNE 4 mph /  6.4 km/h 11 mph /  17.7 km/h 79 % 0 in /  0.0 mm
08:42 40.8 °F /  4.9 °C 34.9 °F /  1.6 °C 30.3 in /  1026.0 hPa NW 3 mph /  4.8 km/h 11 mph /  17.7 km/h 79 % 0 in /  0.0 mm
08:52 41.2 °F /  5.1 °C 33.8 °F /  1.0 °C 30.3 in /  1026.0 hPa NNE 4 mph /  6.4 km/h 11 mph /  17.7 km/h 75 % 0 in /  0.0 mm
08:57 41.5 °F /  5.3 °C 34.2 °F /  1.2 °C 30.3 in /  1026.3 hPa NE 3 mph /  4.8 km/h 15 mph /  24.1 km/h 75 % 0 in /  0.0 mm
09:07 41.9 °F /  5.5 °C 33.6 °F /  0.9 °C 30.3 in /  1026.3 hPa East 3 mph /  4.8 km/h 13 mph /  20.9 km/h 72 % 0 in /  0.0 mm
09:12 42.3 °F /  5.7 °C 33.6 °F /  0.9 °C 30.3 in /  1026.3 hPa North 5 mph /  8.0 km/h 13 mph /  20.9 km/h 71 % 0 in /  0.0 mm
09:17 42.4 °F /  5.8 °C 34 °F /  1.1 °C 30.3 in /  1026.3 hPa NNE 10 mph /  16.1 km/h 13 mph /  20.9 km/h 72 % 0 in /  0.0 mm
09:22 42.4 °F /  5.8 °C 33.4 °F /  0.8 °C 30.3 in /  1026.3 hPa NNE 8 mph /  12.9 km/h 13 mph /  20.9 km/h 70 % 0 in /  0.0 mm
09:32 42.6 °F /  5.9 °C 33.8 °F /  1.0 °C 30.3 in /  1026.6 hPa NNE 8 mph /  12.9 km/h 13 mph /  20.9 km/h 71 % 0 in /  0.0 mm
09:42 43 °F /  6.1 °C 34.2 °F /  1.2 °C 30.3 in /  1026.6 hPa North 3 mph /  4.8 km/h 14 mph /  22.5 km/h 71 % 0 in /  0.0 mm
09:52 43.2 °F /  6.2 °C 34.3 °F /  1.3 °C 30.3 in /  1026.6 hPa NE 3 mph /  4.8 km/h 12 mph /  19.3 km/h 71 % 0 in /  0.0 mm
10:02 43.5 °F /  6.4 °C 34.3 °F /  1.3 °C 30.3 in /  1026.6 hPa ENE 3 mph /  4.8 km/h 12 mph /  19.3 km/h 70 % 0 in /  0.0 mm
10:17 44.2 °F /  6.8 °C 35.1 °F /  1.7 °C 30.3 in /  1026.6 hPa NE 4 mph /  6.4 km/h 13 mph /  20.9 km/h 70 % 0 in /  0.0 mm
10:22 44.1 °F /  6.7 °C 33.4 °F /  0.8 °C 30.3 in /  1026.6 hPa ENE 7 mph /  11.3 km/h 13 mph /  20.9 km/h 66 % 0 in /  0.0 mm
10:32 45 °F /  7.2 °C 34.7 °F /  1.5 °C 30.3 in /  1026.6 hPa ENE 3 mph /  4.8 km/h 15 mph /  24.1 km/h 67 % 0 in /  0.0 mm
10:42 45.3 °F /  7.4 °C 33.8 °F /  1.0 °C 30.3 in /  1026.6 hPa NE 6 mph /  9.7 km/h 15 mph /  24.1 km/h 64 % 0 in /  0.0 mm
10:47 45.7 °F /  7.6 °C 33.8 °F /  1.0 °C 30.3 in /  1027.0 hPa NE 4 mph /  6.4 km/h 14 mph /  22.5 km/h 63 % 0 in /  0.0 mm
10:52 45.9 °F /  7.7 °C 33.6 °F /  0.9 °C 30.3 in /  1027.0 hPa NE 5 mph /  8.0 km/h 14 mph /  22.5 km/h 62 % 0 in /  0.0 mm
11:02 46 °F /  7.8 °C 32.5 °F /  0.3 °C 30.3 in /  1027.0 hPa NNE 16 mph /  25.7 km/h 16 mph /  25.7 km/h 59 % 0 in /  0.0 mm
11:12 46.6 °F /  8.1 °C 32.5 °F /  0.3 °C 30.3 in /  1027.0 hPa NNE 10 mph /  16.1 km/h 17 mph /  27.4 km/h 58 % 0 in /  0.0 mm
11:17 46.4 °F /  8.0 °C 31.6 °F /  -0.2 °C 30.3 in /  1027.0 hPa NE 3 mph /  4.8 km/h 17 mph /  27.4 km/h 56 % 0 in /  0.0 mm
11:22 46.8 °F /  8.2 °C 31.8 °F /  -0.1 °C 30.3 in /  1027.0 hPa NNE 10 mph /  16.1 km/h 17 mph /  27.4 km/h 56 % 0 in /  0.0 mm
11:32 47.8 °F /  8.8 °C 32 °F /  0.0 °C 30.3 in /  1027.0 hPa NE 12 mph /  19.3 km/h 13 mph /  20.9 km/h 54 % 0 in /  0.0 mm
11:37 47.7 °F /  8.7 °C 31.3 °F /  -0.4 °C 30.3 in /  1027.0 hPa NE 8 mph /  12.9 km/h 17 mph /  27.4 km/h 53 % 0 in /  0.0 mm
11:42 47.8 °F /  8.8 °C 32 °F /  0.0 °C 30.3 in /  1027.0 hPa NNE 6 mph /  9.7 km/h 17 mph /  27.4 km/h 54 % 0 in /  0.0 mm
11:47 47.7 °F /  8.7 °C 31.3 °F /  -0.4 °C 30.3 in /  1027.0 hPa North 16 mph /  25.7 km/h 17 mph /  27.4 km/h 53 % 0 in /  0.0 mm
11:52 47.8 °F /  8.8 °C 32.5 °F /  0.3 °C 30.3 in /  1027.0 hPa NE 8 mph /  12.9 km/h 16 mph /  25.7 km/h 55 % 0 in /  0.0 mm
11:57 48 °F /  8.9 °C 32.5 °F /  0.3 °C 30.3 in /  1027.0 hPa East 6 mph /  9.7 km/h 16 mph /  25.7 km/h 55 % 0 in /  0.0 mm
12:07 48.4 °F /  9.1 °C 33.4 °F /  0.8 °C 30.3 in /  1027.0 hPa NNW 5 mph /  8.0 km/h 14 mph /  22.5 km/h 56 % 0 in /  0.0 mm
12:12 48.6 °F /  9.2 °C 33.1 °F /  0.6 °C 30.3 in /  1027.0 hPa NNW 9 mph /  14.5 km/h 13 mph /  20.9 km/h 55 % 0 in /  0.0 mm
12:17 48.7 °F /  9.3 °C 32.4 °F /  0.2 °C 30.3 in /  1027.0 hPa North 4 mph /  6.4 km/h 13 mph /  20.9 km/h 53 % 0 in /  0.0 mm
12:22 48.6 °F /  9.2 °C 31.8 °F /  -0.1 °C 30.3 in /  1027.0 hPa NNE 5 mph /  8.0 km/h 14 mph /  22.5 km/h 52 % 0 in /  0.0 mm
12:32 48.9 °F /  9.4 °C 32 °F /  0.0 °C 30.3 in /  1027.0 hPa NE 8 mph /  12.9 km/h 16 mph /  25.7 km/h 52 % 0 in /  0.0 mm
12:42 49.6 °F /  9.8 °C 33.6 °F /  0.9 °C 30.3 in /  1027.0 hPa NNE 5 mph /  8.0 km/h 14 mph /  22.5 km/h 54 % 0 in /  0.0 mm
12:47 49.6 °F /  9.8 °C 31.8 °F /  -0.1 °C 30.3 in /  1027.0 hPa NNW 8 mph /  12.9 km/h 14 mph /  22.5 km/h 50 % 0 in /  0.0 mm
12:52 49.3 °F /  9.6 °C 32 °F /  0.0 °C 30.3 in /  1027.0 hPa NNW 11 mph /  17.7 km/h 15 mph /  24.1 km/h 51 % 0 in /  0.0 mm
12:57 49.8 °F /  9.9 °C 32.4 °F /  0.2 °C 30.3 in /  1027.0 hPa NE 6 mph /  9.7 km/h 15 mph /  24.1 km/h 51 % 0 in /  0.0 mm
13:02 50.2 °F /  10.1 °C 31.8 °F /  -0.1 °C 30.3 in /  1027.0 hPa NNE 8 mph /  12.9 km/h 15 mph /  24.1 km/h 49 % 0 in /  0.0 mm
13:07 50.5 °F /  10.3 °C 33.1 °F /  0.6 °C 30.3 in /  1027.0 hPa NE 6 mph /  9.7 km/h 15 mph /  24.1 km/h 51 % 0 in /  0.0 mm
13:12 50.4 °F /  10.2 °C 30.9 °F /  -0.6 °C 30.3 in /  1027.0 hPa ENE 9 mph /  14.5 km/h 20 mph /  32.2 km/h 47 % 0 in /  0.0 mm
13:17 50.4 °F /  10.2 °C 31.5 °F /  -0.3 °C 30.3 in /  1027.0 hPa NE 8 mph /  12.9 km/h 20 mph /  32.2 km/h 48 % 0 in /  0.0 mm
13:22 50.5 °F /  10.3 °C 31.6 °F /  -0.2 °C 30.3 in /  1027.0 hPa NE 13 mph /  20.9 km/h 20 mph /  32.2 km/h 48 % 0 in /  0.0 mm
13:27 50.7 °F /  10.4 °C 31.3 °F /  -0.4 °C 30.3 in /  1027.0 hPa NE 11 mph /  17.7 km/h 17 mph /  27.4 km/h 47 % 0 in /  0.0 mm
13:32 50.5 °F /  10.3 °C 32 °F /  0.0 °C 30.3 in /  1027.0 hPa ENE 6 mph /  9.7 km/h 17 mph /  27.4 km/h 49 % 0 in /  0.0 mm
13:37 50.7 °F /  10.4 °C 31.8 °F /  -0.1 °C 30.3 in /  1026.6 hPa NNW 3 mph /  4.8 km/h 17 mph /  27.4 km/h 48 % 0 in /  0.0 mm
13:42 51.3 °F /  10.7 °C 32.7 °F /  0.4 °C 30.3 in /  1027.0 hPa North 7 mph /  11.3 km/h 18 mph /  29.0 km/h 49 % 0 in /  0.0 mm
13:47 51.3 °F /  10.7 °C 32.2 °F /  0.1 °C 30.3 in /  1027.0 hPa NE 5 mph /  8.0 km/h 18 mph /  29.0 km/h 48 % 0 in /  0.0 mm
13:52 50.5 °F /  10.3 °C 30.6 °F /  -0.8 °C 30.3 in /  1026.6 hPa NNE 11 mph /  17.7 km/h 16 mph /  25.7 km/h 46 % 0 in /  0.0 mm
13:57 50.4 °F /  10.2 °C 32 °F /  0.0 °C 30.3 in /  1027.0 hPa NNW 9 mph /  14.5 km/h 16 mph /  25.7 km/h 49 % 0 in /  0.0 mm
14:02 50.2 °F /  10.1 °C 31.3 °F /  -0.4 °C 30.3 in /  1027.0 hPa NNW 5 mph /  8.0 km/h 16 mph /  25.7 km/h 48 % 0 in /  0.0 mm
14:07 50.9 °F /  10.5 °C 32.4 °F /  0.2 °C 30.3 in /  1026.6 hPa NW 5 mph /  8.0 km/h 17 mph /  27.4 km/h 49 % 0 in /  0.0 mm
14:12 50.9 °F /  10.5 °C 31.8 °F /  -0.1 °C 30.3 in /  1027.0 hPa NW 10 mph /  16.1 km/h 17 mph /  27.4 km/h 48 % 0 in /  0.0 mm
14:17 50.7 °F /  10.4 °C 32.2 °F /  0.1 °C 30.3 in /  1026.6 hPa WNW 4 mph /  6.4 km/h 19 mph /  30.6 km/h 49 % 0 in /  0.0 mm
14:22 51.3 °F /  10.7 °C 32.7 °F /  0.4 °C 30.3 in /  1026.6 hPa NW 7 mph /  11.3 km/h 19 mph /  30.6 km/h 49 % 0 in /  0.0 mm
14:27 51.6 °F /  10.9 °C 32.5 °F /  0.3 °C 30.3 in /  1027.0 hPa North 15 mph /  24.1 km/h 19 mph /  30.6 km/h 48 % 0 in /  0.0 mm
14:32 51.3 °F /  10.7 °C 31.1 °F /  -0.5 °C 30.3 in /  1027.0 hPa NW 6 mph /  9.7 km/h 19 mph /  30.6 km/h 46 % 0 in /  0.0 mm
14:42 50.4 °F /  10.2 °C 30.4 °F /  -0.9 °C 30.3 in /  1027.0 hPa North 9 mph /  14.5 km/h 20 mph /  32.2 km/h 46 % 0 in /  0.0 mm
14:47 50.5 °F /  10.3 °C 31.6 °F /  -0.2 °C 30.3 in /  1026.6 hPa NNE 12 mph /  19.3 km/h 20 mph /  32.2 km/h 48 % 0 in /  0.0 mm
14:52 50.7 °F /  10.4 °C 33.3 °F /  0.7 °C 30.3 in /  1027.0 hPa NE 9 mph /  14.5 km/h 20 mph /  32.2 km/h 51 % 0 in /  0.0 mm
14:57 50.4 °F /  10.2 °C 31.5 °F /  -0.3 °C 30.3 in /  1027.0 hPa NNE 15 mph /  24.1 km/h 18 mph /  29.0 km/h 48 % 0 in /  0.0 mm
15:02 49.6 °F /  9.8 °C 31.3 °F /  -0.4 °C 30.3 in /  1027.0 hPa NNE 5 mph /  8.0 km/h 18 mph /  29.0 km/h 49 % 0 in /  0.0 mm
15:07 50.2 °F /  10.1 °C 32.7 °F /  0.4 °C 30.3 in /  1026.6 hPa NNE 6 mph /  9.7 km/h 18 mph /  29.0 km/h 51 % 0 in /  0.0 mm
15:12 51.1 °F /  10.6 °C 33.1 °F /  0.6 °C 30.3 in /  1026.6 hPa North 6 mph /  9.7 km/h 18 mph /  29.0 km/h 50 % 0 in /  0.0 mm
15:17 51.3 °F /  10.7 °C 31.6 °F /  -0.2 °C 30.3 in /  1026.6 hPa NNE 5 mph /  8.0 km/h 16 mph /  25.7 km/h 47 % 0 in /  0.0 mm
15:22 51.1 °F /  10.6 °C 33.6 °F /  0.9 °C 30.3 in /  1026.6 hPa NNW 13 mph /  20.9 km/h 16 mph /  25.7 km/h 51 % 0 in /  0.0 mm
15:27 50.7 °F /  10.4 °C 32.2 °F /  0.1 °C 30.3 in /  1026.6 hPa NNE 5 mph /  8.0 km/h 13 mph /  20.9 km/h 49 % 0 in /  0.0 mm
15:32 50.5 °F /  10.3 °C 33.1 °F /  0.6 °C 30.3 in /  1026.6 hPa North 7 mph /  11.3 km/h 13 mph /  20.9 km/h 51 % 0 in /  0.0 mm
15:37 50.4 °F /  10.2 °C 32.4 °F /  0.2 °C 30.3 in /  1026.6 hPa NNW 9 mph /  14.5 km/h 14 mph /  22.5 km/h 50 % 0 in /  0.0 mm
15:42 51.1 °F /  10.6 °C 33.1 °F /  0.6 °C 30.3 in /  1026.6 hPa NNE 14 mph /  22.5 km/h 15 mph /  24.1 km/h 50 % 0 in /  0.0 mm
15:47 51.3 °F /  10.7 °C 34.7 °F /  1.5 °C 30.3 in /  1026.6 hPa East 4 mph /  6.4 km/h 18 mph /  29.0 km/h 53 % 0 in /  0.0 mm
15:52 50.7 °F /  10.4 °C 34.2 °F /  1.2 °C 30.3 in /  1026.6 hPa NE 3 mph /  4.8 km/h 18 mph /  29.0 km/h 53 % 0 in /  0.0 mm
15:57 50.4 °F /  10.2 °C 33.4 °F /  0.8 °C 30.3 in /  1026.6 hPa ENE 6 mph /  9.7 km/h 18 mph /  29.0 km/h 52 % 0 in /  0.0 mm
16:02 51.3 °F /  10.7 °C 34.2 °F /  1.2 °C 30.3 in /  1026.6 hPa NNE 8 mph /  12.9 km/h 18 mph /  29.0 km/h 52 % 0 in /  0.0 mm
16:07 52.2 °F /  11.2 °C 34.5 °F /  1.4 °C 30.3 in /  1026.6 hPa North 16 mph /  25.7 km/h 18 mph /  29.0 km/h 51 % 0 in /  0.0 mm
16:12 52.2 °F /  11.2 °C 35.1 °F /  1.7 °C 30.3 in /  1026.6 hPa NNE 11 mph /  17.7 km/h 19 mph /  30.6 km/h 52 % 0 in /  0.0 mm
16:17 51.3 °F /  10.7 °C 35.2 °F /  1.8 °C 30.3 in /  1026.6 hPa NNE 11 mph /  17.7 km/h 21 mph /  33.8 km/h 54 % 0 in /  0.0 mm
16:22 50.4 °F /  10.2 °C 35.2 °F /  1.8 °C 30.3 in /  1026.6 hPa NNE 14 mph /  22.5 km/h 21 mph /  33.8 km/h 56 % 0 in /  0.0 mm
16:27 49.8 °F /  9.9 °C 34.3 °F /  1.3 °C 30.3 in /  1027.0 hPa NNW 11 mph /  17.7 km/h 21 mph /  33.8 km/h 55 % 0 in /  0.0 mm
16:37 50.4 °F /  10.2 °C 35.2 °F /  1.8 °C 30.3 in /  1026.6 hPa NNE 13 mph /  20.9 km/h 20 mph /  32.2 km/h 56 % 0 in /  0.0 mm
16:47 50.4 °F /  10.2 °C 34.3 °F /  1.3 °C 30.3 in /  1027.0 hPa NNW 8 mph /  12.9 km/h 18 mph /  29.0 km/h 54 % 0 in /  0.0 mm
16:52 50 °F /  10.0 °C 34.5 °F /  1.4 °C 30.3 in /  1027.0 hPa NNW 9 mph /  14.5 km/h 18 mph /  29.0 km/h 55 % 0 in /  0.0 mm
16:57 49.8 °F /  9.9 °C 33.4 °F /  0.8 °C 30.3 in /  1027.0 hPa NW 8 mph /  12.9 km/h 18 mph /  29.0 km/h 53 % 0 in /  0.0 mm
17:02 49.6 °F /  9.8 °C 34.5 °F /  1.4 °C 30.3 in /  1027.0 hPa North 9 mph /  14.5 km/h 18 mph /  29.0 km/h 56 % 0 in /  0.0 mm
17:12 49.6 °F /  9.8 °C 35.1 °F /  1.7 °C 30.3 in /  1027.0 hPa North 6 mph /  9.7 km/h 20 mph /  32.2 km/h 57 % 0 in /  0.0 mm
17:17 49.5 °F /  9.7 °C 35.8 °F /  2.1 °C 30.3 in /  1027.0 hPa NNW 8 mph /  12.9 km/h 20 mph /  32.2 km/h 59 % 0 in /  0.0 mm
17:22 48.9 °F /  9.4 °C 35.2 °F /  1.8 °C 30.3 in /  1027.0 hPa NNW 11 mph /  17.7 km/h 16 mph /  25.7 km/h 59 % 0 in /  0.0 mm
17:27 48.4 °F /  9.1 °C 34.3 °F /  1.3 °C 30.3 in /  1027.0 hPa North 9 mph /  14.5 km/h 16 mph /  25.7 km/h 58 % 0 in /  0.0 mm
17:32 48.7 °F /  9.3 °C 34.2 °F /  1.2 °C 30.3 in /  1027.0 hPa NW 7 mph /  11.3 km/h 16 mph /  25.7 km/h 57 % 0 in /  0.0 mm
17:37 48.9 °F /  9.4 °C 34.3 °F /  1.3 °C 30.3 in /  1027.0 hPa NW 5 mph /  8.0 km/h 13 mph /  20.9 km/h 57 % 0 in /  0.0 mm
17:42 49.1 °F /  9.5 °C 34.5 °F /  1.4 °C 30.3 in /  1027.0 hPa North 7 mph /  11.3 km/h 14 mph /  22.5 km/h 57 % 0 in /  0.0 mm
17:47 48.9 °F /  9.4 °C 34.9 °F /  1.6 °C 30.3 in /  1027.0 hPa NNE 13 mph /  20.9 km/h 16 mph /  25.7 km/h 58 % 0 in /  0.0 mm
17:52 49.3 °F /  9.6 °C 35.6 °F /  2.0 °C 30.3 in /  1027.0 hPa NNW 3 mph /  4.8 km/h 16 mph /  25.7 km/h 59 % 0 in /  0.0 mm
18:02 49.8 °F /  9.9 °C 34.7 °F /  1.5 °C 30.3 in /  1027.0 hPa NNW 8 mph /  12.9 km/h 16 mph /  25.7 km/h 56 % 0 in /  0.0 mm
18:12 49.3 °F /  9.6 °C 33.8 °F /  1.0 °C 30.3 in /  1027.0 hPa North 10 mph /  16.1 km/h 16 mph /  25.7 km/h 55 % 0 in /  0.0 mm
18:17 49.1 °F /  9.5 °C 34.2 °F /  1.2 °C 30.3 in /  1027.0 hPa NNW 11 mph /  17.7 km/h 16 mph /  25.7 km/h 56 % 0 in /  0.0 mm
18:22 49.5 °F /  9.7 °C 34 °F /  1.1 °C 30.3 in /  1027.0 hPa NW 5 mph /  8.0 km/h 16 mph /  25.7 km/h 55 % 0 in /  0.0 mm
18:27 49.5 °F /  9.7 °C 32.5 °F /  0.3 °C 30.3 in /  1027.0 hPa NNE 7 mph /  11.3 km/h 16 mph /  25.7 km/h 52 % 0 in /  0.0 mm
18:32 49.5 °F /  9.7 °C 32 °F /  0.0 °C 30.3 in /  1027.0 hPa North 12 mph /  19.3 km/h 13 mph /  20.9 km/h 51 % 0 in /  0.0 mm
18:42 48.6 °F /  9.2 °C 34.9 °F /  1.6 °C 30.3 in /  1027.0 hPa North 8 mph /  12.9 km/h 13 mph /  20.9 km/h 59 % 0 in /  0.0 mm
18:52 47.1 °F /  8.4 °C 35.6 °F /  2.0 °C 30.3 in /  1027.0 hPa East 5 mph /  8.0 km/h 20 mph /  32.2 km/h 64 % 0 in /  0.0 mm
18:57 46 °F /  7.8 °C 35.8 °F /  2.1 °C 30.3 in /  1027.3 hPa ENE 10 mph /  16.1 km/h 14 mph /  22.5 km/h 67 % 0 in /  0.0 mm
19:07 45 °F /  7.2 °C 36.1 °F /  2.3 °C 30.3 in /  1027.3 hPa ENE 4 mph /  6.4 km/h 11 mph /  17.7 km/h 71 % 0 in /  0.0 mm
19:12 44.4 °F /  6.9 °C 36 °F /  2.2 °C 30.3 in /  1027.3 hPa NE 4 mph /  6.4 km/h 10 mph /  16.1 km/h 72 % 0 in /  0.0 mm
19:17 44.1 °F /  6.7 °C 36 °F /  2.2 °C 30.3 in /  1027.3 hPa NE 3 mph /  4.8 km/h 11 mph /  17.7 km/h 73 % 0 in /  0.0 mm
19:22 43.9 °F /  6.6 °C 36.1 °F /  2.3 °C 30.3 in /  1027.3 hPa NE 3 mph /  4.8 km/h 11 mph /  17.7 km/h 74 % 0 in /  0.0 mm
19:27 43.5 °F /  6.4 °C 35.8 °F /  2.1 °C 30.4 in /  1027.7 hPa ENE 3 mph /  4.8 km/h 11 mph /  17.7 km/h 74 % 0 in /  0.0 mm
19:32 43.3 °F /  6.3 °C 36 °F /  2.2 °C 30.4 in /  1027.7 hPa NE 5 mph /  8.0 km/h 11 mph /  17.7 km/h 75 % 0 in /  0.0 mm
19:37 43.2 °F /  6.2 °C 35.8 °F /  2.1 °C 30.4 in /  1027.7 hPa NE 4 mph /  6.4 km/h 7 mph /  11.3 km/h 75 % 0 in /  0.0 mm
19:42 43.2 °F /  6.2 °C 36.1 °F /  2.3 °C 30.4 in /  1027.7 hPa NE 3 mph /  4.8 km/h 7 mph /  11.3 km/h 76 % 0 in /  0.0 mm
19:47 43.2 °F /  6.2 °C 35.8 °F /  2.1 °C 30.4 in /  1027.7 hPa NNE 5 mph /  8.0 km/h 7 mph /  11.3 km/h 75 % 0 in /  0.0 mm
19:52 43 °F /  6.1 °C 36 °F /  2.2 °C 30.4 in /  1027.7 hPa East 1 mph /  1.6 km/h 7 mph /  11.3 km/h 76 % 0 in /  0.0 mm
19:57 42.8 °F /  6.0 °C 35.8 °F /  2.1 °C 30.4 in /  1027.7 hPa NE 1 mph /  1.6 km/h 7 mph /  11.3 km/h 76 % 0 in /  0.0 mm
20:02 43 °F /  6.1 °C 36.3 °F /  2.4 °C 30.4 in /  1027.7 hPa ENE 1 mph /  1.6 km/h 7 mph /  11.3 km/h 77 % 0 in /  0.0 mm
20:12 43.3 °F /  6.3 °C 36.3 °F /  2.4 °C 30.4 in /  1027.7 hPa Calm   3 mph /  4.8 km/h 76 % 0 in /  0.0 mm
20:17 43.2 °F /  6.2 °C 36.1 °F /  2.3 °C 30.4 in /  1028.0 hPa Calm   2 mph /  3.2 km/h 76 % 0 in /  0.0 mm
20:22 43.2 °F /  6.2 °C 36.1 °F /  2.3 °C 30.4 in /  1028.0 hPa Calm   2 mph /  3.2 km/h 76 % 0 in /  0.0 mm
20:32 42.4 °F /  5.8 °C 35.8 °F /  2.1 °C 30.4 in /  1028.0 hPa Calm   2 mph /  3.2 km/h 77 % 0 in /  0.0 mm
20:42 41.7 °F /  5.4 °C 35.8 °F /  2.1 °C 30.4 in /  1028.0 hPa Calm   1 mph /  1.6 km/h 79 % 0 in /  0.0 mm
20:47 41.5 °F /  5.3 °C 35.6 °F /  2.0 °C 30.4 in /  1028.0 hPa Calm   1 mph /  1.6 km/h 79 % 0 in /  0.0 mm
20:52 41.4 °F /  5.2 °C 35.6 °F /  2.0 °C 30.4 in /  1028.3 hPa Calm   1 mph /  1.6 km/h 80 % 0 in /  0.0 mm
20:57 41.2 °F /  5.1 °C 35.8 °F /  2.1 °C 30.4 in /  1028.3 hPa Calm   2 mph /  3.2 km/h 81 % 0 in /  0.0 mm
21:02 40.8 °F /  4.9 °C 35.1 °F /  1.7 °C 30.4 in /  1028.3 hPa Calm   2 mph /  3.2 km/h 80 % 0 in /  0.0 mm
21:07 40.5 °F /  4.7 °C 35.1 °F /  1.7 °C 30.4 in /  1028.3 hPa Calm   2 mph /  3.2 km/h 81 % 0 in /  0.0 mm
21:12 40.3 °F /  4.6 °C 35.2 °F /  1.8 °C 30.4 in /  1028.3 hPa Calm   1 mph /  1.6 km/h 82 % 0 in /  0.0 mm
21:17 40.5 °F /  4.7 °C 35.4 °F /  1.9 °C 30.4 in /  1028.3 hPa Calm   1 mph /  1.6 km/h 82 % 0 in /  0.0 mm
21:22 40.3 °F /  4.6 °C 34.9 °F /  1.6 °C 30.4 in /  1028.3 hPa Calm   1 mph /  1.6 km/h 81 % 0 in /  0.0 mm
21:27 40.3 °F /  4.6 °C 35.2 °F /  1.8 °C 30.4 in /  1028.7 hPa Calm   1 mph /  1.6 km/h 82 % 0 in /  0.0 mm
21:32 40.3 °F /  4.6 °C 35.2 °F /  1.8 °C 30.4 in /  1028.7 hPa Calm   1 mph /  1.6 km/h 82 % 0 in /  0.0 mm
21:37 39.9 °F /  4.4 °C 34.9 °F /  1.6 °C 30.4 in /  1028.7 hPa Calm   2 mph /  3.2 km/h 82 % 0 in /  0.0 mm
21:42 39.9 °F /  4.4 °C 34.9 °F /  1.6 °C 30.4 in /  1028.7 hPa NW 1 mph /  1.6 km/h 2 mph /  3.2 km/h 82 % 0 in /  0.0 mm
21:47 39.7 °F /  4.3 °C 34.7 °F /  1.5 °C 30.4 in /  1028.7 hPa NW 1 mph /  1.6 km/h 2 mph /  3.2 km/h 82 % 0 in /  0.0 mm
21:52 39.7 °F /  4.3 °C 34.7 °F /  1.5 °C 30.4 in /  1028.7 hPa Calm   2 mph /  3.2 km/h 82 % 0 in /  0.0 mm
22:02 39 °F /  3.9 °C 34.3 °F /  1.3 °C 30.4 in /  1028.7 hPa Calm   3 mph /  4.8 km/h 83 % 0 in /  0.0 mm
22:12 38.5 °F /  3.6 °C 34.2 °F /  1.2 °C 30.4 in /  1028.7 hPa Calm   2 mph /  3.2 km/h 84 % 0 in /  0.0 mm
22:17 38.5 °F /  3.6 °C 34.2 °F /  1.2 °C 30.4 in /  1028.7 hPa NNE 1 mph /  1.6 km/h 3 mph /  4.8 km/h 84 % 0 in /  0.0 mm
22:22 38.3 °F /  3.5 °C 34 °F /  1.1 °C 30.4 in /  1028.7 hPa North 1 mph /  1.6 km/h 4 mph /  6.4 km/h 84 % 0 in /  0.0 mm
22:27 38.1 °F /  3.4 °C 33.8 °F /  1.0 °C 30.4 in /  1028.7 hPa NNE 1 mph /  1.6 km/h 4 mph /  6.4 km/h 84 % 0 in /  0.0 mm
22:32 37.9 °F /  3.3 °C 33.8 °F /  1.0 °C 30.4 in /  1029.0 hPa Calm   4 mph /  6.4 km/h 85 % 0 in /  0.0 mm
22:37 38.1 °F /  3.4 °C 34 °F /  1.1 °C 30.4 in /  1029.0 hPa Calm   4 mph /  6.4 km/h 85 % 0 in /  0.0 mm
22:42 38.3 °F /  3.5 °C 34.2 °F /  1.2 °C 30.4 in /  1029.0 hPa Calm   5 mph /  8.0 km/h 85 % 0 in /  0.0 mm
22:47 38.5 °F /  3.6 °C 34.3 °F /  1.3 °C 30.4 in /  1029.0 hPa Calm   5 mph /  8.0 km/h 85 % 0 in /  0.0 mm
22:52 38.5 °F /  3.6 °C 34.2 °F /  1.2 °C 30.4 in /  1029.0 hPa NNE 2 mph /  3.2 km/h 3 mph /  4.8 km/h 84 % 0 in /  0.0 mm
22:57 38.5 °F /  3.6 °C 34.2 °F /  1.2 °C 30.4 in /  1029.0 hPa Calm   3 mph /  4.8 km/h 84 % 0 in /  0.0 mm
23:07 38.1 °F /  3.4 °C 33.8 °F /  1.0 °C 30.4 in /  1029.0 hPa NNE 1 mph /  1.6 km/h 2 mph /  3.2 km/h 84 % 0 in /  0.0 mm
23:12 38.1 °F /  3.4 °C 34 °F /  1.1 °C 30.4 in /  1029.0 hPa NNE 1 mph /  1.6 km/h 3 mph /  4.8 km/h 85 % 0 in /  0.0 mm
23:17 38.1 °F /  3.4 °C 34 °F /  1.1 °C 30.4 in /  1029.0 hPa Calm   3 mph /  4.8 km/h 85 % 0 in /  0.0 mm
23:22 38.3 °F /  3.5 °C 34.2 °F /  1.2 °C 30.4 in /  1029.0 hPa Calm   3 mph /  4.8 km/h 85 % 0 in /  0.0 mm
23:32 38.3 °F /  3.5 °C 34 °F /  1.1 °C 30.4 in /  1029.0 hPa NNE 3 mph /  4.8 km/h 4 mph /  6.4 km/h 84 % 0 in /  0.0 mm
23:37 38.7 °F /  3.7 °C 34.2 °F /  1.2 °C 30.4 in /  1029.0 hPa NE 1 mph /  1.6 km/h 5 mph /  8.0 km/h 84 % 0 in /  0.0 mm
23:42 39 °F /  3.9 °C 34.5 °F /  1.4 °C 30.4 in /  1029.3 hPa Calm   6 mph /  9.7 km/h 84 % 0 in /  0.0 mm
23:47 39.4 °F /  4.1 °C 34.7 °F /  1.5 °C 30.4 in /  1029.3 hPa North 4 mph /  6.4 km/h 6 mph /  9.7 km/h 83 % 0 in /  0.0 mm
23:52 39.2 °F /  4.0 °C 34.5 °F /  1.4 °C 30.4 in /  1029.0 hPa NNE 4 mph /  6.4 km/h 7 mph /  11.3 km/h 83 % 0 in /  0.0 mm
23:57 39.2 °F /  4.0 °C 34.5 °F /  1.4 °C 30.4 in /  1029.3 hPa NNE 4 mph /  6.4 km/h 7 mph /  11.3 km/h 83 % 0 in /  0.0 mm
Meteo18
Compliments of Weather Underground - 4 mb

Script developed by  Jim McMurry - jmcmurry@mwt.net Adapted for the template by  Wim van der Kuil - Leuven-Template.eu

You find our weather info also at:

European Weather Network

Weather Underground

Equipment we use:

Weather-station
Davis Vue

Weather-program
Meteohub

Weather-server
Raspberry PI 2 B+

Provider
1 and 1

Davis Vue

Meteohub

Raspberry PI 2 B+

1 and 1